sensor_id;sensor_type;location;lat;lon;timestamp;temperature;humidity
29353;DHT22;16344;50.364;8.944;2023-07-20T00:01:11;21.30;1.00
29353;DHT22;16344;50.364;8.944;2023-07-20T00:03:36;21.30;1.00
29353;DHT22;16344;50.364;8.944;2023-07-20T00:06:02;21.40;1.00
29353;DHT22;16344;50.364;8.944;2023-07-20T00:08:30;21.30;1.00
29353;DHT22;16344;50.364;8.944;2023-07-20T00:10:55;21.00;1.00
29353;DHT22;16344;50.364;8.944;2023-07-20T00:13:21;21.10;1.00
29353;DHT22;16344;50.364;8.944;2023-07-20T00:15:47;21.10;1.00
29353;DHT22;16344;50.364;8.944;2023-07-20T00:18:13;21.10;1.00
29353;DHT22;16344;50.364;8.944;2023-07-20T00:20:39;21.20;1.00
29353;DHT22;16344;50.364;8.944;2023-07-20T00:23:04;21.10;1.00
29353;DHT22;16344;50.364;8.944;2023-07-20T00:25:30;21.10;1.00
29353;DHT22;16344;50.364;8.944;2023-07-20T00:27:56;21.10;1.00
29353;DHT22;16344;50.364;8.944;2023-07-20T00:30:21;21.20;1.00
29353;DHT22;16344;50.364;8.944;2023-07-20T00:32:47;21.20;1.00
29353;DHT22;16344;50.364;8.944;2023-07-20T00:35:13;21.20;1.00
29353;DHT22;16344;50.364;8.944;2023-07-20T00:37:39;21.20;1.00
29353;DHT22;16344;50.364;8.944;2023-07-20T00:40:05;21.10;1.00
29353;DHT22;16344;50.364;8.944;2023-07-20T00:42:33;21.10;1.00
29353;DHT22;16344;50.364;8.944;2023-07-20T00:44:59;21.10;1.00
29353;DHT22;16344;50.364;8.944;2023-07-20T00:47:25;21.10;1.00
29353;DHT22;16344;50.364;8.944;2023-07-20T00:49:51;21.00;1.00
29353;DHT22;16344;50.364;8.944;2023-07-20T00:52:19;20.90;1.00
29353;DHT22;16344;50.364;8.944;2023-07-20T00:54:45;20.80;1.00
29353;DHT22;16344;50.364;8.944;2023-07-20T00:57:14;20.80;1.00
29353;DHT22;16344;50.364;8.944;2023-07-20T00:59:39;20.80;1.00
29353;DHT22;16344;50.364;8.944;2023-07-20T01:02:05;21.00;1.00
29353;DHT22;16344;50.364;8.944;2023-07-20T01:04:31;21.00;1.00
29353;DHT22;16344;50.364;8.944;2023-07-20T01:09:56;20.90;1.00
29353;DHT22;16344;50.364;8.944;2023-07-20T01:12:35;20.90;1.00
29353;DHT22;16344;50.364;8.944;2023-07-20T01:15:06;20.70;1.00
29353;DHT22;16344;50.364;8.944;2023-07-20T01:17:33;20.60;1.00
29353;DHT22;16344;50.364;8.944;2023-07-20T01:19:59;20.60;1.00
29353;DHT22;16344;50.364;8.944;2023-07-20T01:33:35;20.50;1.00
29353;DHT22;16344;50.364;8.944;2023-07-20T01:36:01;20.30;1.00
29353;DHT22;16344;50.364;8.944;2023-07-20T01:38:28;20.10;1.00
29353;DHT22;16344;50.364;8.944;2023-07-20T01:40:54;20.20;1.00
29353;DHT22;16344;50.364;8.944;2023-07-20T01:43:21;20.40;1.00
29353;DHT22;16344;50.364;8.944;2023-07-20T01:45:47;20.20;1.00
29353;DHT22;16344;50.364;8.944;2023-07-20T01:48:12;20.10;1.00
29353;DHT22;16344;50.364;8.944;2023-07-20T01:50:38;20.20;1.00
29353;DHT22;16344;50.364;8.944;2023-07-20T01:53:03;20.20;1.00
29353;DHT22;16344;50.364;8.944;2023-07-20T01:55:29;20.10;1.00
29353;DHT22;16344;50.364;8.944;2023-07-20T01:57:55;20.10;1.00
29353;DHT22;16344;50.364;8.944;2023-07-20T02:00:21;20.00;1.00
29353;DHT22;16344;50.364;8.944;2023-07-20T02:02:49;19.90;1.00
29353;DHT22;16344;50.364;8.944;2023-07-20T02:05:15;20.00;1.00
29353;DHT22;16344;50.364;8.944;2023-07-20T02:07:40;20.10;1.00
29353;DHT22;16344;50.364;8.944;2023-07-20T02:10:06;19.90;1.00
29353;DHT22;16344;50.364;8.944;2023-07-20T02:12:32;19.80;1.00
29353;DHT22;16344;50.364;8.944;2023-07-20T02:14:57;19.80;1.00
29353;DHT22;16344;50.364;8.944;2023-07-20T02:17:23;19.70;1.00
29353;DHT22;16344;50.364;8.944;2023-07-20T02:19:52;19.80;1.00
29353;DHT22;16344;50.364;8.944;2023-07-20T02:22:18;19.90;1.00
29353;DHT22;16344;50.364;8.944;2023-07-20T02:24:44;19.90;1.00
29353;DHT22;16344;50.364;8.944;2023-07-20T02:27:09;19.90;1.00
29353;DHT22;16344;50.364;8.944;2023-07-20T02:29:35;19.90;1.00
29353;DHT22;16344;50.364;8.944;2023-07-20T02:32:01;19.80;1.00
29353;DHT22;16344;50.364;8.944;2023-07-20T02:34:27;19.80;1.00
29353;DHT22;16344;50.364;8.944;2023-07-20T02:36:52;20.00;1.00
29353;DHT22;16344;50.364;8.944;2023-07-20T02:39:18;19.90;1.00
29353;DHT22;16344;50.364;8.944;2023-07-20T02:41:43;20.00;1.00
29353;DHT22;16344;50.364;8.944;2023-07-20T02:44:09;20.00;1.00
29353;DHT22;16344;50.364;8.944;2023-07-20T02:46:34;20.00;1.00
29353;DHT22;16344;50.364;8.944;2023-07-20T02:49:00;20.00;1.00
29353;DHT22;16344;50.364;8.944;2023-07-20T02:51:26;20.00;1.00
29353;DHT22;16344;50.364;8.944;2023-07-20T02:53:52;19.90;1.00
29353;DHT22;16344;50.364;8.944;2023-07-20T02:56:17;19.80;1.00
29353;DHT22;16344;50.364;8.944;2023-07-20T02:58:43;19.90;1.00
29353;DHT22;16344;50.364;8.944;2023-07-20T03:01:09;19.90;1.00
29353;DHT22;16344;50.364;8.944;2023-07-20T03:03:38;19.80;1.00
29353;DHT22;16344;50.364;8.944;2023-07-20T03:06:06;19.90;1.00
29353;DHT22;16344;50.364;8.944;2023-07-20T03:08:34;19.90;1.00
29353;DHT22;16344;50.364;8.944;2023-07-20T03:11:01;19.80;1.00
29353;DHT22;16344;50.364;8.944;2023-07-20T03:13:26;20.00;1.00
29353;DHT22;16344;50.364;8.944;2023-07-20T03:15:53;20.10;1.00
29353;DHT22;16344;50.364;8.944;2023-07-20T03:18:18;20.00;1.00
29353;DHT22;16344;50.364;8.944;2023-07-20T03:20:44;20.00;1.00
29353;DHT22;16344;50.364;8.944;2023-07-20T03:23:10;20.00;1.00
29353;DHT22;16344;50.364;8.944;2023-07-20T03:25:35;20.10;1.00
29353;DHT22;16344;50.364;8.944;2023-07-20T03:28:03;20.00;1.00
29353;DHT22;16344;50.364;8.944;2023-07-20T03:30:28;20.00;1.00
29353;DHT22;16344;50.364;8.944;2023-07-20T03:32:54;20.00;1.00
29353;DHT22;16344;50.364;8.944;2023-07-20T03:35:19;20.00;1.00
29353;DHT22;16344;50.364;8.944;2023-07-20T03:37:45;20.10;1.00
29353;DHT22;16344;50.364;8.944;2023-07-20T03:40:11;20.20;1.00
29353;DHT22;16344;50.364;8.944;2023-07-20T03:42:36;20.10;1.00
29353;DHT22;16344;50.364;8.944;2023-07-20T03:45:02;20.10;1.00
29353;DHT22;16344;50.364;8.944;2023-07-20T03:47:28;20.00;1.00
29353;DHT22;16344;50.364;8.944;2023-07-20T03:49:54;20.00;1.00
29353;DHT22;16344;50.364;8.944;2023-07-20T03:52:19;20.10;1.00
29353;DHT22;16344;50.364;8.944;2023-07-20T03:54:45;20.10;1.00
29353;DHT22;16344;50.364;8.944;2023-07-20T03:57:10;20.10;1.00
29353;DHT22;16344;50.364;8.944;2023-07-20T03:59:37;20.10;1.00
29353;DHT22;16344;50.364;8.944;2023-07-20T04:02:03;20.10;1.00
29353;DHT22;16344;50.364;8.944;2023-07-20T04:04:30;20.10;1.00
29353;DHT22;16344;50.364;8.944;2023-07-20T04:06:56;20.10;1.00
29353;DHT22;16344;50.364;8.944;2023-07-20T04:09:22;20.00;1.00
29353;DHT22;16344;50.364;8.944;2023-07-20T04:11:47;20.10;1.00
29353;DHT22;16344;50.364;8.944;2023-07-20T04:14:13;20.10;1.00
29353;DHT22;16344;50.364;8.944;2023-07-20T04:16:38;20.00;1.00
29353;DHT22;16344;50.364;8.944;2023-07-20T04:19:04;20.00;1.00
29353;DHT22;16344;50.364;8.944;2023-07-20T04:21:29;20.00;1.00
29353;DHT22;16344;50.364;8.944;2023-07-20T04:23:55;19.90;1.00
29353;DHT22;16344;50.364;8.944;2023-07-20T04:26:20;20.00;1.00
29353;DHT22;16344;50.364;8.944;2023-07-20T04:28:46;20.00;1.00
29353;DHT22;16344;50.364;8.944;2023-07-20T04:31:13;20.00;1.00
29353;DHT22;16344;50.364;8.944;2023-07-20T04:33:39;20.00;1.00
29353;DHT22;16344;50.364;8.944;2023-07-20T04:36:05;20.00;1.00
29353;DHT22;16344;50.364;8.944;2023-07-20T04:38:31;19.90;1.00
29353;DHT22;16344;50.364;8.944;2023-07-20T04:40:57;19.90;1.00
29353;DHT22;16344;50.364;8.944;2023-07-20T04:43:22;20.00;1.00
29353;DHT22;16344;50.364;8.944;2023-07-20T04:45:48;19.90;1.00
29353;DHT22;16344;50.364;8.944;2023-07-20T04:48:15;20.00;1.00
29353;DHT22;16344;50.364;8.944;2023-07-20T04:50:42;20.10;1.00
29353;DHT22;16344;50.364;8.944;2023-07-20T04:53:09;20.10;1.00
29353;DHT22;16344;50.364;8.944;2023-07-20T04:55:38;20.10;1.00
29353;DHT22;16344;50.364;8.944;2023-07-20T04:58:04;20.30;1.00
29353;DHT22;16344;50.364;8.944;2023-07-20T05:00:31;20.30;1.00
29353;DHT22;16344;50.364;8.944;2023-07-20T05:02:56;20.20;1.00
29353;DHT22;16344;50.364;8.944;2023-07-20T05:05:22;20.20;1.00
29353;DHT22;16344;50.364;8.944;2023-07-20T05:07:48;20.20;1.00
29353;DHT22;16344;50.364;8.944;2023-07-20T05:10:13;20.30;1.00
29353;DHT22;16344;50.364;8.944;2023-07-20T05:12:39;20.30;1.00
29353;DHT22;16344;50.364;8.944;2023-07-20T05:15:05;20.40;1.00
29353;DHT22;16344;50.364;8.944;2023-07-20T05:17:30;20.70;1.00
29353;DHT22;16344;50.364;8.944;2023-07-20T05:19:56;21.00;1.00
29353;DHT22;16344;50.364;8.944;2023-07-20T05:22:21;21.20;1.00
29353;DHT22;16344;50.364;8.944;2023-07-20T05:24:47;21.60;1.00
29353;DHT22;16344;50.364;8.944;2023-07-20T05:27:12;21.80;1.00
29353;DHT22;16344;50.364;8.944;2023-07-20T05:29:43;22.30;1.00
29353;DHT22;16344;50.364;8.944;2023-07-20T05:32:09;22.60;1.00
29353;DHT22;16344;50.364;8.944;2023-07-20T05:34:35;22.90;1.00
29353;DHT22;16344;50.364;8.944;2023-07-20T05:37:00;22.70;1.00
29353;DHT22;16344;50.364;8.944;2023-07-20T05:39:26;22.60;1.00
29353;DHT22;16344;50.364;8.944;2023-07-20T05:41:51;22.50;1.00
29353;DHT22;16344;50.364;8.944;2023-07-20T05:44:17;22.50;1.00
29353;DHT22;16344;50.364;8.944;2023-07-20T05:46:42;22.20;1.00
29353;DHT22;16344;50.364;8.944;2023-07-20T05:49:08;22.20;1.00
29353;DHT22;16344;50.364;8.944;2023-07-20T05:51:33;22.50;1.00
29353;DHT22;16344;50.364;8.944;2023-07-20T05:53:59;22.80;1.00
29353;DHT22;16344;50.364;8.944;2023-07-20T05:56:24;23.30;1.00
29353;DHT22;16344;50.364;8.944;2023-07-20T05:58:50;23.90;1.00
29353;DHT22;16344;50.364;8.944;2023-07-20T06:01:15;23.80;1.00
29353;DHT22;16344;50.364;8.944;2023-07-20T06:03:41;24.00;1.00
29353;DHT22;16344;50.364;8.944;2023-07-20T06:06:07;24.10;1.00
29353;DHT22;16344;50.364;8.944;2023-07-20T06:08:34;24.20;1.00
29353;DHT22;16344;50.364;8.944;2023-07-20T06:11:00;23.60;1.00
29353;DHT22;16344;50.364;8.944;2023-07-20T06:13:25;23.30;1.00
29353;DHT22;16344;50.364;8.944;2023-07-20T06:15:51;23.30;1.00
29353;DHT22;16344;50.364;8.944;2023-07-20T06:18:17;23.00;1.00
29353;DHT22;16344;50.364;8.944;2023-07-20T06:20:42;22.20;1.00
29353;DHT22;16344;50.364;8.944;2023-07-20T06:23:08;21.70;1.00
29353;DHT22;16344;50.364;8.944;2023-07-20T06:25:34;21.40;1.00
29353;DHT22;16344;50.364;8.944;2023-07-20T06:28:00;21.30;1.00
29353;DHT22;16344;50.364;8.944;2023-07-20T06:30:25;21.40;1.00
29353;DHT22;16344;50.364;8.944;2023-07-20T06:32:51;21.50;1.00
29353;DHT22;16344;50.364;8.944;2023-07-20T06:35:17;21.30;1.00
29353;DHT22;16344;50.364;8.944;2023-07-20T06:37:43;21.30;1.00
29353;DHT22;16344;50.364;8.944;2023-07-20T06:40:08;21.60;1.00
29353;DHT22;16344;50.364;8.944;2023-07-20T06:42:34;22.50;1.00
29353;DHT22;16344;50.364;8.944;2023-07-20T06:45:00;23.20;1.00
29353;DHT22;16344;50.364;8.944;2023-07-20T06:47:25;23.70;1.00
29353;DHT22;16344;50.364;8.944;2023-07-20T06:49:51;23.90;1.00
29353;DHT22;16344;50.364;8.944;2023-07-20T06:52:16;23.70;1.00
29353;DHT22;16344;50.364;8.944;2023-07-20T06:54:42;23.50;1.00
29353;DHT22;16344;50.364;8.944;2023-07-20T06:57:07;23.20;1.00
29353;DHT22;16344;50.364;8.944;2023-07-20T06:59:33;23.10;1.00
29353;DHT22;16344;50.364;8.944;2023-07-20T07:01:59;23.30;1.00
29353;DHT22;16344;50.364;8.944;2023-07-20T07:04:25;23.50;1.00
29353;DHT22;16344;50.364;8.944;2023-07-20T07:06:50;23.70;1.00
29353;DHT22;16344;50.364;8.944;2023-07-20T07:09:16;23.70;1.00
29353;DHT22;16344;50.364;8.944;2023-07-20T07:11:41;23.50;1.00
29353;DHT22;16344;50.364;8.944;2023-07-20T07:14:07;23.50;1.00
29353;DHT22;16344;50.364;8.944;2023-07-20T07:16:32;23.40;1.00
29353;DHT22;16344;50.364;8.944;2023-07-20T07:18:58;23.40;1.00
29353;DHT22;16344;50.364;8.944;2023-07-20T07:21:25;23.50;1.00
29353;DHT22;16344;50.364;8.944;2023-07-20T07:23:51;23.30;1.00
29353;DHT22;16344;50.364;8.944;2023-07-20T07:26:18;23.10;1.00
29353;DHT22;16344;50.364;8.944;2023-07-20T07:28:44;23.00;1.00
29353;DHT22;16344;50.364;8.944;2023-07-20T07:31:10;22.70;1.00
29353;DHT22;16344;50.364;8.944;2023-07-20T07:33:35;22.50;1.00
29353;DHT22;16344;50.364;8.944;2023-07-20T07:36:01;22.10;1.00
29353;DHT22;16344;50.364;8.944;2023-07-20T07:38:27;21.70;1.00
29353;DHT22;16344;50.364;8.944;2023-07-20T07:40:52;21.70;1.00
29353;DHT22;16344;50.364;8.944;2023-07-20T07:43:18;21.60;1.00
29353;DHT22;16344;50.364;8.944;2023-07-20T07:45:43;21.80;1.00
29353;DHT22;16344;50.364;8.944;2023-07-20T07:48:09;22.40;1.00
29353;DHT22;16344;50.364;8.944;2023-07-20T07:50:38;23.10;1.00
29353;DHT22;16344;50.364;8.944;2023-07-20T07:53:05;23.70;1.00
29353;DHT22;16344;50.364;8.944;2023-07-20T07:55:31;24.00;1.00
29353;DHT22;16344;50.364;8.944;2023-07-20T07:57:56;24.40;1.00
29353;DHT22;16344;50.364;8.944;2023-07-20T08:00:22;24.10;1.00
29353;DHT22;16344;50.364;8.944;2023-07-20T08:02:49;23.60;1.00
29353;DHT22;16344;50.364;8.944;2023-07-20T08:05:15;23.30;1.00
29353;DHT22;16344;50.364;8.944;2023-07-20T08:07:41;23.20;1.00
29353;DHT22;16344;50.364;8.944;2023-07-20T08:10:07;23.10;1.00
29353;DHT22;16344;50.364;8.944;2023-07-20T08:12:33;23.50;1.00
29353;DHT22;16344;50.364;8.944;2023-07-20T08:14:58;23.80;1.00
29353;DHT22;16344;50.364;8.944;2023-07-20T08:17:24;24.00;1.00
29353;DHT22;16344;50.364;8.944;2023-07-20T08:19:49;24.20;1.00
29353;DHT22;16344;50.364;8.944;2023-07-20T08:22:15;24.20;1.00
29353;DHT22;16344;50.364;8.944;2023-07-20T08:24:41;24.60;1.00
29353;DHT22;16344;50.364;8.944;2023-07-20T08:27:07;24.70;1.00
29353;DHT22;16344;50.364;8.944;2023-07-20T08:29:36;24.60;1.00
29353;DHT22;16344;50.364;8.944;2023-07-20T08:32:03;24.90;1.00
29353;DHT22;16344;50.364;8.944;2023-07-20T08:34:29;25.00;1.00
29353;DHT22;16344;50.364;8.944;2023-07-20T08:36:55;25.20;1.00
29353;DHT22;16344;50.364;8.944;2023-07-20T08:39:21;25.60;1.00
29353;DHT22;16344;50.364;8.944;2023-07-20T08:41:48;25.50;1.00
29353;DHT22;16344;50.364;8.944;2023-07-20T08:44:14;25.20;99.90
29353;DHT22;16344;50.364;8.944;2023-07-20T08:46:41;25.00;1.00
29353;DHT22;16344;50.364;8.944;2023-07-20T08:49:07;24.90;99.90
29353;DHT22;16344;50.364;8.944;2023-07-20T08:51:33;25.20;99.90
29353;DHT22;16344;50.364;8.944;2023-07-20T08:54:01;25.70;99.90
29353;DHT22;16344;50.364;8.944;2023-07-20T08:56:26;25.60;99.90
29353;DHT22;16344;50.364;8.944;2023-07-20T08:58:56;25.30;99.90
29353;DHT22;16344;50.364;8.944;2023-07-20T09:01:22;24.80;99.90
29353;DHT22;16344;50.364;8.944;2023-07-20T09:03:48;24.70;99.90
29353;DHT22;16344;50.364;8.944;2023-07-20T09:06:14;24.70;99.90
29353;DHT22;16344;50.364;8.944;2023-07-20T09:08:40;24.20;99.90
29353;DHT22;16344;50.364;8.944;2023-07-20T09:11:06;24.00;99.90
29353;DHT22;16344;50.364;8.944;2023-07-20T09:13:33;23.80;99.90
29353;DHT22;16344;50.364;8.944;2023-07-20T09:15:59;23.50;1.00
29353;DHT22;16344;50.364;8.944;2023-07-20T09:18:26;23.30;1.00
29353;DHT22;16344;50.364;8.944;2023-07-20T09:20:53;23.40;1.00
29353;DHT22;16344;50.364;8.944;2023-07-20T09:23:19;23.70;1.00
29353;DHT22;16344;50.364;8.944;2023-07-20T09:25:45;24.00;1.00
29353;DHT22;16344;50.364;8.944;2023-07-20T09:28:15;24.20;99.90
29353;DHT22;16344;50.364;8.944;2023-07-20T09:30:41;24.40;99.90
29353;DHT22;16344;50.364;8.944;2023-07-20T09:33:19;24.20;1.00
29353;DHT22;16344;50.364;8.944;2023-07-20T09:35:45;24.20;99.90
29353;DHT22;16344;50.364;8.944;2023-07-20T09:38:11;24.70;99.90
29353;DHT22;16344;50.364;8.944;2023-07-20T09:40:40;24.80;99.90
29353;DHT22;16344;50.364;8.944;2023-07-20T09:43:09;24.60;99.90
29353;DHT22;16344;50.364;8.944;2023-07-20T09:45:39;24.40;99.90
29353;DHT22;16344;50.364;8.944;2023-07-20T09:48:09;24.30;99.90
29353;DHT22;16344;50.364;8.944;2023-07-20T09:50:55;24.40;99.90
29353;DHT22;16344;50.364;8.944;2023-07-20T09:53:21;24.20;99.90
29353;DHT22;16344;50.364;8.944;2023-07-20T09:55:49;24.10;99.90
29353;DHT22;16344;50.364;8.944;2023-07-20T09:58:16;24.40;99.90
29353;DHT22;16344;50.364;8.944;2023-07-20T10:00:42;24.50;99.90
29353;DHT22;16344;50.364;8.944;2023-07-20T10:03:16;24.80;99.90
29353;DHT22;16344;50.364;8.944;2023-07-20T10:05:46;25.00;99.90
29353;DHT22;16344;50.364;8.944;2023-07-20T10:08:15;24.70;99.90
29353;DHT22;16344;50.364;8.944;2023-07-20T10:10:42;24.60;99.90
29353;DHT22;16344;50.364;8.944;2023-07-20T10:13:24;24.70;99.90
29353;DHT22;16344;50.364;8.944;2023-07-20T10:15:53;25.10;99.90
29353;DHT22;16344;50.364;8.944;2023-07-20T10:18:32;25.40;99.90
29353;DHT22;16344;50.364;8.944;2023-07-20T10:21:00;25.60;99.90
29353;DHT22;16344;50.364;8.944;2023-07-20T10:23:28;25.80;99.90
29353;DHT22;16344;50.364;8.944;2023-07-20T10:25:55;25.80;99.90
29353;DHT22;16344;50.364;8.944;2023-07-20T10:28:22;25.90;99.90
29353;DHT22;16344;50.364;8.944;2023-07-20T10:30:48;26.10;99.90
29353;DHT22;16344;50.364;8.944;2023-07-20T10:33:17;26.30;99.90
29353;DHT22;16344;50.364;8.944;2023-07-20T10:36:15;26.50;99.90
29353;DHT22;16344;50.364;8.944;2023-07-20T10:38:42;26.50;99.90
29353;DHT22;16344;50.364;8.944;2023-07-20T10:43:45;26.20;99.90
29353;DHT22;16344;50.364;8.944;2023-07-20T10:46:11;26.20;99.90
29353;DHT22;16344;50.364;8.944;2023-07-20T10:49:07;26.20;99.90
29353;DHT22;16344;50.364;8.944;2023-07-20T10:51:47;26.30;99.90
29353;DHT22;16344;50.364;8.944;2023-07-20T10:56:48;26.70;99.90
29353;DHT22;16344;50.364;8.944;2023-07-20T11:01:57;27.10;99.90
29353;DHT22;16344;50.364;8.944;2023-07-20T11:04:42;27.10;99.90
29353;DHT22;16344;50.364;8.944;2023-07-20T11:07:08;27.10;99.90
29353;DHT22;16344;50.364;8.944;2023-07-20T11:09:34;27.50;99.90
29353;DHT22;16344;50.364;8.944;2023-07-20T11:12:11;27.30;99.90
29353;DHT22;16344;50.364;8.944;2023-07-20T11:14:55;27.30;99.90
29353;DHT22;16344;50.364;8.944;2023-07-20T11:17:31;27.50;99.90
29353;DHT22;16344;50.364;8.944;2023-07-20T11:19:59;27.70;99.90
29353;DHT22;16344;50.364;8.944;2023-07-20T11:22:26;27.70;99.90
29353;DHT22;16344;50.364;8.944;2023-07-20T11:24:55;27.90;99.90
29353;DHT22;16344;50.364;8.944;2023-07-20T11:27:21;27.90;99.90
29353;DHT22;16344;50.364;8.944;2023-07-20T11:29:48;27.80;99.90
29353;DHT22;16344;50.364;8.944;2023-07-20T11:32:23;27.60;99.90
29353;DHT22;16344;50.364;8.944;2023-07-20T11:34:49;27.60;99.90
29353;DHT22;16344;50.364;8.944;2023-07-20T11:37:15;27.20;99.90
29353;DHT22;16344;50.364;8.944;2023-07-20T11:39:41;27.10;99.90
29353;DHT22;16344;50.364;8.944;2023-07-20T11:42:07;27.20;99.90
29353;DHT22;16344;50.364;8.944;2023-07-20T11:44:33;27.40;99.90
29353;DHT22;16344;50.364;8.944;2023-07-20T11:47:08;27.60;99.90
29353;DHT22;16344;50.364;8.944;2023-07-20T11:49:41;27.70;99.90
29353;DHT22;16344;50.364;8.944;2023-07-20T11:52:08;27.70;99.90
29353;DHT22;16344;50.364;8.944;2023-07-20T11:54:41;27.70;99.90
29353;DHT22;16344;50.364;8.944;2023-07-20T11:57:07;27.70;99.90
29353;DHT22;16344;50.364;8.944;2023-07-20T11:59:33;27.80;99.90
29353;DHT22;16344;50.364;8.944;2023-07-20T12:02:01;27.70;99.90
29353;DHT22;16344;50.364;8.944;2023-07-20T12:04:28;27.90;99.90
29353;DHT22;16344;50.364;8.944;2023-07-20T12:06:54;28.00;99.90
29353;DHT22;16344;50.364;8.944;2023-07-20T12:09:21;28.30;99.90
29353;DHT22;16344;50.364;8.944;2023-07-20T12:11:49;28.30;99.90
29353;DHT22;16344;50.364;8.944;2023-07-20T12:14:15;28.40;99.90
29353;DHT22;16344;50.364;8.944;2023-07-20T12:16:41;28.50;99.90
29353;DHT22;16344;50.364;8.944;2023-07-20T12:19:12;28.40;99.90
29353;DHT22;16344;50.364;8.944;2023-07-20T12:21:39;28.30;99.90
29353;DHT22;16344;50.364;8.944;2023-07-20T12:24:06;28.10;99.90
29353;DHT22;16344;50.364;8.944;2023-07-20T12:26:33;28.00;99.90
29353;DHT22;16344;50.364;8.944;2023-07-20T12:28:59;28.20;99.90
29353;DHT22;16344;50.364;8.944;2023-07-20T12:31:26;28.40;99.90
29353;DHT22;16344;50.364;8.944;2023-07-20T12:33:52;28.30;99.90
29353;DHT22;16344;50.364;8.944;2023-07-20T12:36:18;28.20;99.90
29353;DHT22;16344;50.364;8.944;2023-07-20T12:38:45;28.00;99.90
29353;DHT22;16344;50.364;8.944;2023-07-20T12:41:11;27.70;99.90
29353;DHT22;16344;50.364;8.944;2023-07-20T12:43:38;27.70;99.90
29353;DHT22;16344;50.364;8.944;2023-07-20T12:46:04;27.90;99.90
29353;DHT22;16344;50.364;8.944;2023-07-20T12:48:30;27.90;99.90
29353;DHT22;16344;50.364;8.944;2023-07-20T12:50:56;28.00;99.90
29353;DHT22;16344;50.364;8.944;2023-07-20T12:53:21;28.20;99.90
29353;DHT22;16344;50.364;8.944;2023-07-20T12:55:47;28.50;99.90
29353;DHT22;16344;50.364;8.944;2023-07-20T12:58:13;28.60;99.90
29353;DHT22;16344;50.364;8.944;2023-07-20T13:00:39;28.70;99.90
29353;DHT22;16344;50.364;8.944;2023-07-20T13:03:05;28.70;99.90
29353;DHT22;16344;50.364;8.944;2023-07-20T13:05:32;28.60;99.90
29353;DHT22;16344;50.364;8.944;2023-07-20T13:07:58;28.50;99.90
29353;DHT22;16344;50.364;8.944;2023-07-20T13:10:24;28.60;99.90
29353;DHT22;16344;50.364;8.944;2023-07-20T13:12:49;28.60;99.90
29353;DHT22;16344;50.364;8.944;2023-07-20T13:15:17;28.80;99.90
29353;DHT22;16344;50.364;8.944;2023-07-20T13:17:42;28.70;99.90
29353;DHT22;16344;50.364;8.944;2023-07-20T13:20:10;28.50;99.90
29353;DHT22;16344;50.364;8.944;2023-07-20T13:22:37;28.30;99.90
29353;DHT22;16344;50.364;8.944;2023-07-20T13:25:03;28.00;99.90
29353;DHT22;16344;50.364;8.944;2023-07-20T13:27:29;27.90;99.90
29353;DHT22;16344;50.364;8.944;2023-07-20T13:29:55;27.70;99.90
29353;DHT22;16344;50.364;8.944;2023-07-20T13:32:22;27.40;99.90
29353;DHT22;16344;50.364;8.944;2023-07-20T13:34:47;27.20;99.90
29353;DHT22;16344;50.364;8.944;2023-07-20T13:37:14;26.80;99.90
29353;DHT22;16344;50.364;8.944;2023-07-20T13:39:39;26.60;99.90
29353;DHT22;16344;50.364;8.944;2023-07-20T13:42:05;26.60;99.90
29353;DHT22;16344;50.364;8.944;2023-07-20T13:44:32;26.60;99.90
29353;DHT22;16344;50.364;8.944;2023-07-20T13:46:57;26.40;99.90
29353;DHT22;16344;50.364;8.944;2023-07-20T13:49:23;26.30;99.90
29353;DHT22;16344;50.364;8.944;2023-07-20T13:51:48;26.30;99.90
29353;DHT22;16344;50.364;8.944;2023-07-20T13:54:14;26.30;99.90
29353;DHT22;16344;50.364;8.944;2023-07-20T13:56:40;26.20;99.90
29353;DHT22;16344;50.364;8.944;2023-07-20T13:59:05;26.20;99.90
29353;DHT22;16344;50.364;8.944;2023-07-20T14:01:31;26.30;99.90
29353;DHT22;16344;50.364;8.944;2023-07-20T14:03:59;26.20;99.90
29353;DHT22;16344;50.364;8.944;2023-07-20T14:06:25;26.30;99.90
29353;DHT22;16344;50.364;8.944;2023-07-20T14:08:51;26.70;99.90
29353;DHT22;16344;50.364;8.944;2023-07-20T14:11:18;26.90;99.90
29353;DHT22;16344;50.364;8.944;2023-07-20T14:13:44;27.00;99.90
29353;DHT22;16344;50.364;8.944;2023-07-20T14:16:10;27.00;99.90
29353;DHT22;16344;50.364;8.944;2023-07-20T14:18:36;26.80;99.90
29353;DHT22;16344;50.364;8.944;2023-07-20T14:21:02;26.50;99.90
29353;DHT22;16344;50.364;8.944;2023-07-20T14:23:29;26.40;99.90
29353;DHT22;16344;50.364;8.944;2023-07-20T14:25:54;26.30;99.90
29353;DHT22;16344;50.364;8.944;2023-07-20T14:28:20;26.40;99.90
29353;DHT22;16344;50.364;8.944;2023-07-20T14:30:46;26.30;99.90
29353;DHT22;16344;50.364;8.944;2023-07-20T14:33:12;26.00;99.90
29353;DHT22;16344;50.364;8.944;2023-07-20T14:35:37;26.10;99.90
29353;DHT22;16344;50.364;8.944;2023-07-20T14:38:03;26.10;99.90
29353;DHT22;16344;50.364;8.944;2023-07-20T14:40:28;26.30;99.90
29353;DHT22;16344;50.364;8.944;2023-07-20T14:42:55;26.40;99.90
29353;DHT22;16344;50.364;8.944;2023-07-20T14:45:21;26.60;99.90
29353;DHT22;16344;50.364;8.944;2023-07-20T14:47:46;26.70;99.90
29353;DHT22;16344;50.364;8.944;2023-07-20T14:50:18;26.80;99.90
29353;DHT22;16344;50.364;8.944;2023-07-20T14:52:44;26.90;99.90
29353;DHT22;16344;50.364;8.944;2023-07-20T14:55:09;26.80;99.90
29353;DHT22;16344;50.364;8.944;2023-07-20T14:57:35;26.80;99.90
29353;DHT22;16344;50.364;8.944;2023-07-20T15:00:01;26.90;99.90
29353;DHT22;16344;50.364;8.944;2023-07-20T15:02:28;26.90;99.90
29353;DHT22;16344;50.364;8.944;2023-07-20T15:04:54;26.90;99.90
29353;DHT22;16344;50.364;8.944;2023-07-20T15:07:21;26.80;99.90
29353;DHT22;16344;50.364;8.944;2023-07-20T15:09:47;26.80;99.90
29353;DHT22;16344;50.364;8.944;2023-07-20T15:12:13;26.80;99.90
29353;DHT22;16344;50.364;8.944;2023-07-20T15:14:41;26.80;99.90
29353;DHT22;16344;50.364;8.944;2023-07-20T15:17:07;26.50;99.90
29353;DHT22;16344;50.364;8.944;2023-07-20T15:19:34;26.40;99.90
29353;DHT22;16344;50.364;8.944;2023-07-20T15:22:04;26.40;99.90
29353;DHT22;16344;50.364;8.944;2023-07-20T15:24:29;26.40;99.90
29353;DHT22;16344;50.364;8.944;2023-07-20T15:26:55;26.60;99.90
29353;DHT22;16344;50.364;8.944;2023-07-20T15:29:22;26.70;99.90
29353;DHT22;16344;50.364;8.944;2023-07-20T15:31:48;26.70;99.90
29353;DHT22;16344;50.364;8.944;2023-07-20T15:34:14;26.60;99.90
29353;DHT22;16344;50.364;8.944;2023-07-20T15:36:40;26.40;99.90
29353;DHT22;16344;50.364;8.944;2023-07-20T15:39:07;26.30;99.90
29353;DHT22;16344;50.364;8.944;2023-07-20T15:41:32;26.20;99.90
29353;DHT22;16344;50.364;8.944;2023-07-20T15:43:58;26.10;99.90
29353;DHT22;16344;50.364;8.944;2023-07-20T15:49:04;26.00;99.90
29353;DHT22;16344;50.364;8.944;2023-07-20T15:51:30;26.00;99.90
29353;DHT22;16344;50.364;8.944;2023-07-20T15:53:55;26.00;99.90
29353;DHT22;16344;50.364;8.944;2023-07-20T15:56:21;26.20;99.90
29353;DHT22;16344;50.364;8.944;2023-07-20T15:58:46;26.30;99.90
29353;DHT22;16344;50.364;8.944;2023-07-20T16:01:12;26.20;99.90